Time;durP1;ratioP1;P1;durP2;ratioP2;P2;SDS_P1;SDS_P2;PMS_P1;PMS_P2;Temp;Humidity;BMP_temperature;BMP_pressure;BME280_temperature;BME280_humidity;BME280_pressure;Samples;Min_cycle;Max_cycle;Signal;HPM_P1;HPM_P2
2021/06/23 00:01:14;;;;;;;;;47.25;39.25;;;;;15.15;76.36;101737.84;4939281;28;45497;-76
2021/06/23 00:03:40;;;;;;;;;53.75;43.75;;;;;15.15;76.19;101730.78;4940660;28;45542;-76
2021/06/23 00:06:05;;;;;;;;;53.50;42.25;;;;;15.13;76.21;101737.91;4940556;28;46275;-76
2021/06/23 00:08:31;;;;;;;;;57.75;46.25;;;;;15.13;75.97;101737.91;4940300;28;45265;-74
2021/06/23 00:10:57;;;;;;;;;49.75;40.50;;;;;15.13;76.27;101737.03;4941003;28;45325;-74
2021/06/23 00:13:23;;;;;;;;;50.50;38.75;;;;;15.14;76.74;101733.44;4942737;28;45459;-74
2021/06/23 00:15:49;;;;;;;;;57.00;43.50;;;;;15.19;76.06;101736.81;4942400;28;47484;-74
2021/06/23 00:18:14;;;;;;;;;46.00;38.00;;;;;15.21;75.57;101737.59;4943980;28;46016;-74
2021/06/23 00:20:40;;;;;;;;;52.25;41.50;;;;;15.17;76.31;101731.56;4944449;28;45290;-75
2021/06/23 00:23:05;;;;;;;;;44.25;37.50;;;;;15.17;76.10;101733.34;4943581;28;45201;-76
2021/06/23 00:25:32;;;;;;;;;45.75;35.00;;;;;15.18;76.41;101732.44;4942814;28;48051;-76
2021/06/23 00:27:58;;;;;;;;;50.50;39.25;;;;;15.13;75.99;101731.75;4944213;28;45730;-76
2021/06/23 00:30:24;;;;;;;;;44.00;34.25;;;;;15.11;76.53;101723.00;4943275;28;45303;-76
2021/06/23 00:32:52;;;;;;;;;41.00;34.00;;;;;15.12;76.57;101736.16;4942248;28;46003;-76
2021/06/23 00:35:18;;;;;;;;;42.75;35.50;;;;;15.06;76.96;101725.81;4943910;28;45582;-76
2021/06/23 00:37:44;;;;;;;;;49.00;39.75;;;;;15.10;76.85;101734.50;4943750;28;45278;-77
2021/06/23 00:40:11;;;;;;;;;45.50;36.50;;;;;15.11;76.77;101738.88;4943887;28;45415;-76
2021/06/23 00:42:37;;;;;;;;;45.75;36.75;;;;;15.15;76.92;101735.19;4943265;28;45573;-74
2021/06/23 00:45:08;;;;;;;;;50.75;40.00;;;;;15.17;76.60;101736.88;4942347;28;47269;-74
2021/06/23 00:47:34;;;;;;;;;48.50;37.00;;;;;15.15;76.75;101736.06;4943594;28;45315;-74
2021/06/23 00:50:06;;;;;;;;;48.50;39.00;;;;;15.10;76.53;101740.66;4944114;28;45278;-74
2021/06/23 00:52:33;;;;;;;;;43.50;35.50;;;;;15.12;76.04;101745.88;4943221;28;45455;-74
2021/06/23 00:54:59;;;;;;;;;39.50;33.50;;;;;15.10;76.17;101745.97;4942471;28;47054;-74
2021/06/23 00:57:24;;;;;;;;;41.25;32.25;;;;;15.06;76.13;101749.63;4943865;28;45397;-74
2021/06/23 00:59:52;;;;;;;;;42.75;34.25;;;;;14.96;75.97;101735.88;4943392;28;45520;-74
2021/06/23 01:02:20;;;;;;;;;39.25;34.25;;;;;14.98;76.24;101743.75;4942138;28;45990;-74
2021/06/23 01:04:47;;;;;;;;;35.25;30.25;;;;;14.95;75.99;101742.94;4943396;28;45338;-74
2021/06/23 01:07:14;;;;;;;;;41.00;33.75;;;;;14.95;76.06;101756.19;4943064;28;45346;-73
2021/06/23 01:09:39;;;;;;;;;36.75;33.00;;;;;14.93;76.53;101755.38;4943474;28;45254;-73
2021/06/23 01:12:41;;;;;;;;;27.50;26.25;;;;;14.92;76.30;101752.75;4943529;28;45329;-74
2021/06/23 01:15:07;;;;;;;;;42.75;33.50;;;;;14.91;76.24;101745.75;4942570;28;45258;-73
2021/06/23 01:17:35;;;;;;;;;42.25;34.25;;;;;14.91;76.25;101751.03;4942642;28;45832;-73
2021/06/23 01:20:11;;;;;;;;;45.50;35.25;;;;;14.89;76.39;101745.78;4943444;28;45417;-73
2021/06/23 01:22:40;;;;;;;;;43.25;36.50;;;;;14.89;76.44;101745.78;4941178;28;46264;-73
2021/06/23 01:25:10;;;;;;;;;41.25;34.25;;;;;14.89;76.21;101737.84;4943223;28;45475;-73
2021/06/23 01:27:36;;;;;;;;;41.25;34.00;;;;;14.90;76.37;101746.66;4943194;28;45271;-73
2021/06/23 01:30:03;;;;;;;;;43.25;34.50;;;;;14.89;76.53;101739.66;4942973;28;45247;-74
2021/06/23 01:32:30;;;;;;;;;45.50;35.75;;;;;14.90;76.19;101742.22;4942732;28;45583;-73
2021/06/23 01:34:56;;;;;;;;;43.25;36.50;;;;;14.90;76.01;101752.81;4942658;28;45350;-74
2021/06/23 01:37:21;;;;;;;;;44.50;37.00;;;;;14.86;76.49;101751.22;4942848;28;45427;-74
2021/06/23 01:39:46;;;;;;;;;45.00;34.50;;;;;14.85;76.54;101753.00;4943063;28;45358;-74
2021/06/23 01:42:12;;;;;;;;;46.50;36.00;;;;;14.89;76.46;101755.53;4942486;28;45353;-75
2021/06/23 01:44:37;;;;;;;;;38.25;34.50;;;;;14.85;76.74;101757.38;4943064;28;45311;-75
2021/06/23 01:47:03;;;;;;;;;41.50;32.00;;;;;14.90;76.42;101759.91;4942964;28;45365;-75
2021/06/23 01:49:28;;;;;;;;;40.25;34.50;;;;;14.88;76.84;101761.72;4942761;28;45435;-74
2021/06/23 01:51:54;;;;;;;;;41.50;31.50;;;;;14.88;76.76;101751.16;4942818;28;45314;-76
2021/06/23 01:54:19;;;;;;;;;36.50;32.00;;;;;14.90;76.79;101754.59;4942112;28;46398;-74
2021/06/23 01:56:45;;;;;;;;;44.25;35.50;;;;;14.88;76.30;101744.06;4943018;28;45408;-75
2021/06/23 01:59:11;;;;;;;;;41.00;34.50;;;;;14.85;76.33;101747.69;4942572;28;45523;-76
2021/06/23 02:02:03;;;;;;;;;44.25;36.00;;;;;14.87;76.67;101747.63;4942714;28;45429;-76
2021/06/23 02:04:43;;;;;;;;;43.50;36.25;;;;;14.89;76.72;101739.66;4941749;28;46407;-76
2021/06/23 02:07:27;;;;;;;;;44.25;35.50;;;;;14.91;76.54;101746.63;4941140;28;45821;-76
2021/06/23 02:10:04;;;;;;;;;44.25;35.50;;;;;14.89;76.53;101740.50;4942360;28;45232;-76
2021/06/23 02:12:29;;;;;;;;;48.00;36.50;;;;;14.87;76.20;101734.41;4942571;28;45231;-77
2021/06/23 02:15:05;;;;;;;;;44.00;35.33;;;;;14.84;76.46;101737.13;4942492;28;45517;-77
2021/06/23 02:17:32;;;;;;;;;47.00;38.00;;;;;14.83;76.18;101736.28;4941071;28;45466;-77
2021/06/23 02:19:59;;;;;;;;;46.50;35.25;;;;;14.89;76.90;101743.13;4942582;28;45357;-77
2021/06/23 02:22:31;;;;;;;;;46.75;39.00;;;;;14.93;76.31;101744.78;4940487;28;47106;-76
2021/06/23 02:25:08;;;;;;;;;46.25;37.25;;;;;14.91;76.42;101735.16;4942157;28;46426;-76
2021/06/23 02:27:35;;;;;;;;;46.50;36.50;;;;;14.92;76.32;101743.03;4942368;28;45897;-76
2021/06/23 02:30:02;;;;;;;;;45.00;37.50;;;;;14.93;76.06;101733.31;4942424;28;45606;-76
2021/06/23 02:32:30;;;;;;;;;45.75;36.25;;;;;14.91;75.90;101733.38;4941958;28;45503;-76
2021/06/23 02:34:58;;;;;;;;;41.50;35.25;;;;;14.88;75.96;101738.78;4940194;28;45504;-76
2021/06/23 02:37:26;;;;;;;;;49.00;38.75;;;;;14.86;75.88;101745.91;4941481;28;45956;-76
2021/06/23 02:39:53;;;;;;;;;48.50;38.50;;;;;14.80;76.01;101743.44;4942493;28;45251;-76
2021/06/23 02:42:18;;;;;;;;;46.00;36.00;;;;;14.84;76.27;101748.56;4942109;28;45287;-75
2021/06/23 02:44:44;;;;;;;;;42.25;36.50;;;;;14.84;76.36;101739.78;4941788;28;46289;-75
2021/06/23 02:47:16;;;;;;;;;42.50;35.25;;;;;14.90;76.44;101746.66;4942051;28;45171;-75
2021/06/23 02:49:41;;;;;;;;;43.50;36.00;;;;;14.90;76.38;101744.00;4930985;28;45430;-75
2021/06/23 02:52:07;;;;;;;;;44.75;35.75;;;;;14.95;75.74;101753.53;4941471;28;45547;-76
2021/06/23 02:54:33;;;;;;;;;39.75;35.00;;;;;14.93;75.83;101754.50;4940103;28;47273;-76
2021/06/23 02:57:00;;;;;;;;;46.50;37.50;;;;;14.92;76.02;101752.75;4940684;28;46952;-76
2021/06/23 02:59:26;;;;;;;;;40.75;31.75;;;;;14.89;76.11;101756.38;4942048;28;45407;-76
2021/06/23 03:01:52;;;;;;;;;45.00;35.25;;;;;14.91;76.00;101751.03;4941864;28;45429;-76
2021/06/23 03:04:17;;;;;;;;;45.00;35.75;;;;;14.92;76.03;101752.75;4941298;28;45814;-76
2021/06/23 03:06:43;;;;;;;;;43.00;34.25;;;;;14.92;75.94;101758.06;4941364;28;45385;-76
2021/06/23 03:09:08;;;;;;;;;37.75;32.50;;;;;14.90;75.87;101746.66;4940473;28;45326;-76
2021/06/23 03:11:38;;;;;;;;;39.25;32.25;;;;;14.90;76.32;101750.19;4940524;28;47054;-79
2021/06/23 03:14:04;;;;;;;;;45.00;35.50;;;;;14.83;75.78;101744.22;4941116;28;46325;-79
2021/06/23 03:16:30;;;;;;;;;38.75;32.75;;;;;14.84;75.89;101750.38;4941481;28;45460;-79
2021/06/23 03:18:55;;;;;;;;;45.25;35.00;;;;;14.80;76.19;101738.16;4941347;28;45608;-79
2021/06/23 03:21:21;;;;;;;;;42.75;35.00;;;;;14.82;76.18;101738.94;4941047;28;45357;-76
2021/06/23 03:23:48;;;;;;;;;40.50;32.25;;;;;14.82;75.96;101742.47;4941176;28;45436;-76
2021/06/23 03:26:13;;;;;;;;;38.75;31.50;;;;;14.80;75.88;101738.16;4940387;28;46108;-76
2021/06/23 03:28:39;;;;;;;;;36.00;29.00;;;;;14.80;76.36;101738.16;4941699;28;45452;-77
2021/06/23 03:31:05;;;;;;;;;39.75;33.00;;;;;14.82;76.39;101746.88;4941623;28;45406;-77
2021/06/23 03:33:30;;;;;;;;;35.50;29.50;;;;;14.82;76.28;101739.81;4941008;28;45312;-76
2021/06/23 03:35:56;;;;;;;;;30.75;28.75;;;;;14.81;76.35;101740.75;4939419;28;45919;-77
2021/06/23 03:38:21;;;;;;;;;32.25;28.25;;;;;14.75;76.26;101735.66;4941334;28;45249;-77
2021/06/23 03:40:47;;;;;;;;;31.25;28.00;;;;;14.80;76.36;101744.31;4940821;28;45323;-77
2021/06/23 03:43:13;;;;;;;;;32.25;27.50;;;;;14.74;76.63;101740.09;4941334;28;45356;-77
2021/06/23 03:45:38;;;;;;;;;36.75;30.00;;;;;14.73;76.60;101743.66;4941300;28;45268;-77
2021/06/23 03:48:04;;;;;;;;;30.25;27.75;;;;;14.75;76.56;101746.25;4940995;28;45425;-77
2021/06/23 03:50:31;;;;;;;;;30.50;27.25;;;;;14.70;76.61;101746.41;4941142;28;45271;-77
2021/06/23 03:52:57;;;;;;;;;32.75;26.75;;;;;14.65;76.76;101745.69;4940149;28;46750;-77
2021/06/23 03:55:26;;;;;;;;;33.50;30.00;;;;;14.67;76.51;101750.97;4941035;28;45287;-78
2021/06/23 03:57:52;;;;;;;;;32.75;29.00;;;;;14.66;76.76;101760.66;4941413;28;45247;-77
2021/06/23 04:00:19;;;;;;;;;34.00;29.25;;;;;14.59;76.84;101754.69;4941036;28;45483;-77
2021/06/23 04:02:44;;;;;;;;;31.00;28.50;;;;;14.60;76.53;101752.91;4940654;28;46045;-77
2021/06/23 04:05:11;;;;;;;;;28.75;26.25;;;;;14.67;76.89;101761.53;4941400;28;45401;-77
2021/06/23 04:07:37;;;;;;;;;32.50;28.75;;;;;14.65;76.90;101761.56;4940655;28;45464;-77
2021/06/23 04:10:04;;;;;;;;;34.00;27.50;;;;;14.68;77.02;101760.59;4940999;28;46269;-76
2021/06/23 04:12:29;;;;;;;;;31.00;28.50;;;;;14.70;76.77;101764.06;4940574;28;46344;-76
2021/06/23 04:14:55;;;;;;;;;35.50;30.00;;;;;14.70;76.79;101769.34;4941121;28;45394;-76
2021/06/23 04:17:20;;;;;;;;;26.00;25.75;;;;;14.70;76.61;101764.06;4940435;28;45164;-81
2021/06/23 04:19:46;;;;;;;;;29.25;27.75;;;;;14.64;76.79;101765.16;4941074;28;45477;-77
2021/06/23 04:22:11;;;;;;;;;30.25;28.75;;;;;14.68;77.03;101769.41;4939869;28;46338;-79
2021/06/23 04:24:36;;;;;;;;;30.25;30.00;;;;;14.69;76.80;101772.94;4941018;28;45235;-80
2021/06/23 04:27:02;;;;;;;;;27.75;25.00;;;;;14.70;76.80;101774.66;4940892;28;45324;-78
2021/06/23 04:29:27;;;;;;;;;28.50;26.75;;;;;14.72;76.83;101772.81;4940943;28;45311;-78
2021/06/23 04:31:52;;;;;;;;;29.75;28.25;;;;;14.77;76.99;101777.94;4940145;28;46472;-76
2021/06/23 04:34:18;;;;;;;;;35.00;30.25;;;;;14.81;76.88;101791.03;4938818;28;45305;-76
2021/06/23 04:36:43;;;;;;;;;33.00;30.25;;;;;14.79;76.94;101779.63;4940479;28;45226;-76
2021/06/23 04:39:09;;;;;;;;;35.25;29.50;;;;;14.79;76.77;101776.13;4940193;28;45535;-76
2021/06/23 04:41:35;;;;;;;;;39.00;32.00;;;;;14.88;76.73;101793.50;4940374;28;45333;-76
2021/06/23 04:44:00;;;;;;;;;31.75;29.75;;;;;14.89;76.75;101780.19;4940553;28;45322;-77
2021/06/23 04:46:25;;;;;;;;;28.75;27.00;;;;;14.88;76.61;101783.78;4940539;28;45352;-75
2021/06/23 04:48:50;;;;;;;;;34.00;30.75;;;;;14.90;76.45;101796.94;4938942;28;46954;-75
2021/06/23 04:51:17;;;;;;;;;37.50;31.00;;;;;14.89;76.91;101784.66;4939097;28;45551;-76
2021/06/23 04:53:43;;;;;;;;;33.50;27.50;;;;;14.88;76.52;101793.50;4940276;28;45278;-76
2021/06/23 04:56:08;;;;;;;;;31.50;27.00;;;;;14.89;76.45;101792.59;4940691;28;45334;-75
2021/06/23 04:58:34;;;;;;;;;34.75;26.25;;;;;14.87;76.72;101795.28;4941555;28;45634;-76
2021/06/23 05:00:59;;;;;;;;;31.50;29.75;;;;;14.85;76.90;101794.44;4940777;28;47490;-75
2021/06/23 05:03:25;;;;;;;;;35.75;29.25;;;;;14.85;76.65;101795.34;4941242;28;45473;-76
2021/06/23 05:05:50;;;;;;;;;25.75;25.50;;;;;14.86;76.46;101801.50;4941532;28;45388;-75
2021/06/23 05:08:15;;;;;;;;;31.75;30.25;;;;;14.83;76.36;101802.44;4942033;28;45491;-76
2021/06/23 05:10:41;;;;;;;;;28.00;25.00;;;;;14.80;76.51;101796.38;4943616;28;45257;-75
2021/06/23 05:13:06;;;;;;;;;34.25;29.00;;;;;14.79;76.59;101795.50;4942531;28;47640;-77
2021/06/23 05:15:31;;;;;;;;;32.50;28.50;;;;;14.80;76.80;101799.88;4942721;28;45692;-76
2021/06/23 05:17:57;;;;;;;;;37.50;31.50;;;;;14.82;76.69;101805.97;4943209;28;46400;-76
2021/06/23 05:20:23;;;;;;;;;24.75;24.75;;;;;14.83;76.62;101806.84;4943091;28;46218;-76
2021/06/23 05:22:50;;;;;;;;;39.25;31.00;;;;;14.83;76.69;101809.50;4931199;28;45757;-75
2021/06/23 05:25:18;;;;;;;;;30.75;28.25;;;;;14.82;76.89;101805.97;4941127;28;45349;-74
2021/06/23 05:27:43;;;;;;;;;39.25;32.25;;;;;14.85;76.41;101811.22;4943379;28;45259;-74
2021/06/23 05:30:09;;;;;;;;;37.75;30.25;;;;;14.82;76.27;101813.06;4943148;28;45574;-74
2021/06/23 05:32:35;;;;;;;;;26.00;23.25;;;;;14.79;77.03;101811.38;4942632;28;45360;-74
2021/06/23 05:35:01;;;;;;;;;26.75;25.75;;;;;14.82;76.53;101821.88;4940413;28;45612;-74
2021/06/23 05:37:26;;;;;;;;;34.00;29.25;;;;;14.78;76.53;101817.59;4951045;28;45507;-75
2021/06/23 05:39:53;;;;;;;;;30.00;26.75;;;;;14.80;76.51;101818.41;4941813;28;48271;-76
2021/06/23 05:42:19;;;;;;;;;37.50;30.00;;;;;14.77;76.49;101818.50;4942536;28;45302;-76
2021/06/23 05:44:44;;;;;;;;;32.50;28.50;;;;;14.76;76.56;101818.56;4943219;28;45243;-76
2021/06/23 05:47:09;;;;;;;;;31.75;28.75;;;;;14.73;76.78;101816.88;4942506;28;45322;-76
2021/06/23 05:49:35;;;;;;;;;30.50;27.75;;;;;14.72;76.86;101817.78;4942122;28;45192;-76
2021/06/23 05:52:00;;;;;;;;;36.50;32.75;;;;;14.71;76.80;101814.31;4943148;28;45460;-76
2021/06/23 05:54:26;;;;;;;;;34.25;29.50;;;;;14.71;76.72;101810.78;4942920;28;45250;-76
2021/06/23 05:56:51;;;;;;;;;31.00;28.50;;;;;14.72;76.69;101812.50;4941834;28;45508;-76
2021/06/23 05:59:16;;;;;;;;;32.00;29.50;;;;;14.71;76.79;101819.59;4941872;28;46421;-76
2021/06/23 06:01:42;;;;;;;;;29.00;28.50;;;;;14.77;76.79;101829.09;4942260;28;45246;-76
2021/06/23 06:04:07;;;;;;;;;35.00;31.75;;;;;14.78;76.92;101829.97;4934989;28;46591;-76
2021/06/23 06:06:32;;;;;;;;;30.25;27.75;;;;;14.80;76.66;101833.41;4939454;28;45395;-75
2021/06/23 06:08:58;;;;;;;;;33.25;28.75;;;;;14.80;76.66;101831.63;4931808;28;47874;-76
2021/06/23 06:11:23;;;;;;;;;30.25;27.50;;;;;14.81;76.44;101838.69;4929648;28;45239;-75
2021/06/23 06:13:49;;;;;;;;;32.50;29.00;;;;;14.82;76.30;101844.81;4931625;28;45762;-74
2021/06/23 06:16:14;;;;;;;;;26.25;25.00;;;;;14.81;76.28;101849.25;4948404;28;45581;-74
2021/06/23 06:18:40;;;;;;;;;31.25;27.50;;;;;14.80;76.08;101844.88;4939491;28;47432;-76
2021/06/23 06:21:05;;;;;;;;;25.75;23.50;;;;;14.78;75.86;101846.72;4938553;28;45361;-75
2021/06/23 06:23:31;;;;;;;;;18.25;15.75;;;;;14.78;76.38;101857.28;4935095;28;45219;-76
2021/06/23 06:25:57;;;;;;;;;21.00;20.50;;;;;14.78;76.05;101849.34;4942052;28;45382;-76
2021/06/23 06:28:23;;;;;;;;;27.00;24.25;;;;;14.80;75.81;101852.81;4934259;28;48057;-76
2021/06/23 06:30:48;;;;;;;;;26.25;23.00;;;;;14.81;75.44;101851.91;4932342;28;45421;-76
2021/06/23 06:33:15;;;;;;;;;29.50;24.50;;;;;14.81;75.38;101857.22;4926140;28;45477;-76
2021/06/23 06:35:41;;;;;;;;;29.75;25.00;;;;;14.83;75.64;101859.78;4953341;28;46186;-76
2021/06/23 06:38:06;;;;;;;;;24.50;24.00;;;;;14.80;75.48;101860.75;4941281;28;45506;-76
2021/06/23 06:40:32;;;;;;;;;30.50;24.75;;;;;14.83;75.62;101868.59;4936948;28;45425;-76
2021/06/23 06:42:57;;;;;;;;;27.50;25.25;;;;;14.84;75.55;101867.66;4930654;28;45429;-75
2021/06/23 06:45:23;;;;;;;;;20.75;20.25;;;;;14.90;75.46;101863.13;4924597;28;45377;-76
2021/06/23 06:47:49;;;;;;;;;21.00;21.00;;;;;14.89;75.36;101861.41;4923619;28;45786;-76
2021/06/23 06:50:15;;;;;;;;;27.00;25.25;;;;;14.94;75.36;101870.03;4935810;28;45440;-76
2021/06/23 06:52:41;;;;;;;;;28.00;23.00;;;;;14.99;75.38;101877.84;4935374;28;45449;-76
2021/06/23 06:55:07;;;;;;;;;25.50;24.00;;;;;14.98;74.87;101876.97;4940384;28;45535;-76
2021/06/23 06:57:33;;;;;;;;;19.50;19.50;;;;;14.94;75.50;101862.09;4940928;28;46267;-76
2021/06/23 06:59:58;;;;;;;;;32.00;29.00;;;;;15.00;75.48;101874.28;4937879;28;45334;-76
2021/06/23 07:02:24;;;;;;;;;27.25;25.25;;;;;14.98;75.31;101878.75;4941175;28;45219;-76
2021/06/23 07:04:50;;;;;;;;;25.00;23.00;;;;;14.94;75.19;101889.44;4940589;28;45658;-76
2021/06/23 07:07:15;;;;;;;;;32.00;27.25;;;;;14.91;75.57;101875.47;4935945;28;45456;-76
2021/06/23 07:09:40;;;;;;;;;30.00;24.50;;;;;14.89;75.87;101874.66;4933104;28;45368;-77
2021/06/23 07:12:06;;;;;;;;;27.25;25.50;;;;;14.93;75.70;101878.91;4922796;28;45314;-76
2021/06/23 07:14:32;;;;;;;;;29.00;27.25;;;;;14.94;75.77;101872.69;4926376;28;45413;-75
2021/06/23 07:16:57;;;;;;;;;24.75;24.50;;;;;14.98;75.69;101884.06;4940246;28;46168;-75
2021/06/23 07:19:23;;;;;;;;;31.00;29.25;;;;;14.98;75.66;101879.63;4939792;28;45761;-76
2021/06/23 07:21:48;;;;;;;;;28.75;28.00;;;;;15.00;75.73;101882.22;4939518;28;45344;-76
2021/06/23 07:24:18;;;;;;;;;37.75;29.50;;;;;15.03;75.65;101887.41;4941309;28;45301;-76
2021/06/23 07:26:47;;;;;;;;;31.25;26.75;;;;;15.03;75.67;101882.13;4941117;28;45398;-76
2021/06/23 07:29:13;;;;;;;;;35.25;29.00;;;;;15.06;75.74;101885.50;4930629;28;45465;-76
2021/06/23 07:37:04;;;;;;;;;39.50;32.25;;;;;14.94;76.09;101889.44;4941046;28;46124;-78
2021/06/23 07:39:31;;;;;;;;;32.50;28.00;;;;;14.91;76.15;101884.28;4935028;28;45342;-78
2021/06/23 07:41:57;;;;;;;;;33.00;29.00;;;;;14.92;76.08;101888.63;4922303;28;45539;-78
2021/06/23 07:44:47;;;;;;;;;40.75;33.00;;;;;14.96;76.08;101892.91;4938397;28;45441;-78
2021/06/23 07:47:17;;;;;;;;;33.75;29.50;;;;;14.99;75.92;101896.38;4930098;28;46461;-81
2021/06/23 07:49:43;;;;;;;;;33.75;29.25;;;;;15.01;75.75;101899.84;4943748;28;45970;-79
2021/06/23 07:55:03;;;;;;;;;38.00;31.00;;;;;14.90;75.66;101900.19;4940644;28;45337;-78
2021/06/23 08:10:45;;;;;;;;;37.75;32.00;;;;;14.72;75.90;101915.69;4937872;28;45670;-78
2021/06/23 08:13:12;;;;;;;;;38.50;30.00;;;;;14.63;76.09;101901.00;4921742;28;45493;-78
2021/06/23 08:15:40;;;;;;;;;37.25;31.00;;;;;14.60;76.20;101899.31;4934895;28;45380;-78
2021/06/23 08:18:07;;;;;;;;;38.00;32.50;;;;;14.61;76.63;101902.81;4940440;28;45523;-78
2021/06/23 08:20:33;;;;;;;;;38.50;34.25;;;;;14.63;76.21;101901.00;4937295;28;45773;-78
2021/06/23 08:23:00;;;;;;;;;39.00;33.25;;;;;14.63;76.14;101896.56;4931559;28;45512;-78
2021/06/23 08:25:25;;;;;;;;;37.25;31.25;;;;;14.73;76.27;101909.50;4940019;28;45524;-78
2021/06/23 08:27:52;;;;;;;;;36.25;30.75;;;;;14.70;75.83;101891.06;4940275;28;45630;-78
2021/06/23 08:30:19;;;;;;;;;40.75;32.75;;;;;14.80;76.31;101897.81;4940696;28;45227;-78
2021/06/23 08:32:45;;;;;;;;;37.75;32.25;;;;;14.85;75.82;101898.56;4940482;28;45426;-77
2021/06/23 08:35:12;;;;;;;;;36.50;31.00;;;;;14.89;75.65;101894.00;4943329;28;45472;-77
2021/06/23 08:37:38;;;;;;;;;33.00;30.25;;;;;14.91;75.99;101893.97;4926189;28;45502;-77
2021/06/23 08:40:06;;;;;;;;;35.25;31.00;;;;;14.95;75.54;101903.53;4924905;28;45318;-77
2021/06/23 08:42:32;;;;;;;;;40.75;32.25;;;;;14.95;75.57;101903.53;4933034;28;45384;-78
2021/06/23 08:44:57;;;;;;;;;29.50;28.50;;;;;14.92;75.35;101888.63;4931476;28;45502;-78
2021/06/23 08:47:26;;;;;;;;;31.00;26.25;;;;;14.98;74.97;101897.28;4939230;28;47074;-78
2021/06/23 08:49:52;;;;;;;;;33.50;29.25;;;;;14.95;75.36;101891.19;4947185;28;45400;-78
2021/06/23 08:52:18;;;;;;;;;35.25;31.75;;;;;15.02;75.44;101893.59;4942791;28;45389;-78
2021/06/23 08:54:53;;;;;;;;;36.00;30.00;;;;;15.10;75.09;101896.00;4943349;28;45527;-77
2021/06/23 08:57:19;;;;;;;;;33.25;30.75;;;;;15.16;74.65;101898.47;4940672;28;45511;-77
2021/06/23 08:59:45;;;;;;;;;38.75;32.50;;;;;15.17;74.40;101900.19;4943575;28;45448;-77
2021/06/23 09:02:12;;;;;;;;;33.25;28.75;;;;;15.17;74.33;101900.19;4944018;28;45416;-77
2021/06/23 09:04:55;;;;;;;;;35.00;32.00;;;;;15.24;74.74;101908.78;4939199;28;45516;-78
2021/06/23 09:07:37;;;;;;;;;38.25;32.50;;;;;15.21;74.76;101907.09;4936780;28;45457;-78
2021/06/23 09:10:06;;;;;;;;;35.75;30.75;;;;;15.17;74.41;101901.03;4937941;28;45577;-78
2021/06/23 09:12:33;;;;;;;;;31.75;27.00;;;;;15.13;74.03;101904.72;4935763;28;45303;-78
2021/06/23 09:15:00;;;;;;;;;35.75;31.50;;;;;15.11;74.09;101911.81;4924526;28;45385;-78
2021/06/23 09:17:26;;;;;;;;;30.00;26.00;;;;;15.07;74.33;101910.22;4942490;28;45451;-78
2021/06/23 09:19:59;;;;;;;;;26.50;24.75;;;;;15.09;74.34;101903.06;4928335;28;45431;-78
2021/06/23 09:22:39;;;;;;;;;33.50;29.25;;;;;15.09;74.23;101907.53;4935911;28;45750;-78
2021/06/23 09:25:10;;;;;;;;;31.25;28.50;;;;;15.18;74.33;101918.69;4941066;28;45792;-78
2021/06/23 09:27:45;;;;;;;;;33.50;27.50;;;;;15.14;74.14;101900.28;4951389;28;47570;-78
2021/06/23 09:30:32;;;;;;;;;37.00;32.00;;;;;15.18;73.91;101902.78;4922861;28;45361;-78
2021/06/23 09:33:21;;;;;;;;;30.25;27.75;;;;;15.19;74.08;101908.94;4944825;28;45620;-78
2021/06/23 09:35:55;;;;;;;;;28.25;28.25;;;;;15.23;74.14;101910.56;4923463;28;45521;-78
2021/06/23 09:38:36;;;;;;;;;29.00;28.50;;;;;15.29;74.18;101910.34;4938396;28;46687;-78
2021/06/23 09:41:30;;;;;;;;;36.75;31.00;;;;;15.34;73.76;101904.03;4940140;28;45370;-78
2021/06/23 09:44:05;;;;;;;;;34.50;31.25;;;;;15.38;73.76;101900.38;4941149;28;45541;-78
2021/06/23 09:46:36;;;;;;;;;36.00;33.25;;;;;15.46;74.16;101908.91;4941720;28;45349;-78
2021/06/23 09:49:04;;;;;;;;;31.00;28.00;;;;;15.58;74.11;101912.88;4941018;28;46869;-78
2021/06/23 09:51:40;;;;;;;;;42.00;30.50;;;;;15.60;73.58;101902.25;4941288;28;45342;-78
2021/06/23 09:54:07;;;;;;;;;37.75;33.25;;;;;15.67;73.80;101902.91;4934629;28;45497;-78
2021/06/23 09:56:40;;;;;;;;;39.00;34.50;;;;;15.78;72.94;101913.13;4933357;28;45549;-78
2021/06/23 09:59:07;;;;;;;;;37.25;33.25;;;;;15.75;72.87;101908.78;4941649;28;46385;-78
2021/06/23 10:01:39;;;;;;;;;32.25;31.00;;;;;15.80;72.57;101911.28;4926860;28;45369;-78
2021/06/23 10:04:09;;;;;;;;;35.50;31.25;;;;;15.73;72.27;101908.84;4922387;28;45672;-78
2021/06/23 10:06:42;;;;;;;;;34.00;32.50;;;;;15.68;72.64;101905.47;4938535;28;45481;-78
2021/06/23 10:09:14;;;;;;;;;29.25;26.75;;;;;15.67;73.13;101908.19;4940182;28;45325;-78
2021/06/23 10:11:41;;;;;;;;;36.50;33.50;;;;;15.71;72.70;101899.22;4939959;28;45736;-78
2021/06/23 10:14:07;;;;;;;;;26.50;23.00;;;;;15.79;73.17;101907.75;4938191;28;45439;-78
2021/06/23 10:16:34;;;;;;;;;31.00;25.25;;;;;15.86;72.20;101916.34;4936293;28;45417;-78
2021/06/23 10:19:00;;;;;;;;;32.75;29.75;;;;;15.88;72.82;101911.00;4938433;28;45470;-78
2021/06/23 10:21:30;;;;;;;;;29.00;26.50;;;;;15.89;72.87;101908.28;4939356;28;45294;-78
2021/06/23 10:23:57;;;;;;;;;29.75;25.25;;;;;15.94;72.94;101921.38;4938389;28;45278;-78
2021/06/23 10:26:25;;;;;;;;;37.75;29.50;;;;;15.94;72.44;101914.28;4938408;28;46272;-78
2021/06/23 10:28:53;;;;;;;;;33.25;29.50;;;;;15.95;72.27;101918.66;4938100;28;45394;-78
2021/06/23 10:31:21;;;;;;;;;30.50;29.25;;;;;15.91;72.67;101914.38;4938170;28;45337;-78
2021/06/23 10:33:47;;;;;;;;;31.50;27.75;;;;;16.01;72.67;101922.00;4940359;28;45442;-78
2021/06/23 10:36:13;;;;;;;;;37.00;33.25;;;;;16.03;72.34;101906.88;4941967;28;45334;-78
2021/06/23 10:38:40;;;;;;;;;37.00;29.50;;;;;16.04;72.35;101908.63;4922776;28;45428;-78
2021/06/23 10:41:06;;;;;;;;;32.50;28.25;;;;;16.10;72.28;101920.84;4925159;28;45287;-78
2021/06/23 10:43:32;;;;;;;;;34.00;32.00;;;;;16.09;72.20;101912.00;4939086;28;45393;-78
2021/06/23 10:45:57;;;;;;;;;35.00;29.25;;;;;16.08;72.77;101905.84;4932942;28;45656;-78
2021/06/23 10:48:22;;;;;;;;;33.75;31.75;;;;;16.16;72.90;101916.16;4935055;28;46295;-78
2021/06/23 10:50:48;;;;;;;;;38.00;31.00;;;;;16.24;72.16;101923.81;4931016;28;45553;-78
2021/06/23 10:53:31;;;;;;;;;36.00;31.75;;;;;16.26;71.58;101934.38;4928249;28;45484;-78
2021/06/23 10:55:58;;;;;;;;;37.50;32.75;;;;;16.14;71.52;101925.97;4938914;28;45510;-78
2021/06/23 10:58:29;;;;;;;;;35.50;34.75;;;;;16.07;71.88;101919.16;4938233;28;45334;-78
2021/06/23 11:01:13;;;;;;;;;31.25;29.25;;;;;16.14;72.08;101944.53;4924213;28;45719;-78
2021/06/23 11:04:11;;;;;;;;;37.75;32.25;;;;;16.17;71.91;101935.59;4951116;28;45664;-78
2021/06/23 11:06:45;;;;;;;;;29.75;27.50;;;;;16.16;72.36;101934.72;4939375;28;45473;-78
2021/06/23 11:09:24;;;;;;;;;34.75;28.50;;;;;16.14;71.63;101936.56;4939428;28;45558;-78
2021/06/23 11:11:51;;;;;;;;;35.50;29.25;;;;;16.11;71.56;101939.34;4938026;28;45240;-78
2021/06/23 11:14:18;;;;;;;;;30.75;27.50;;;;;16.06;71.71;101951.91;4941660;28;45391;-78
2021/06/23 11:16:44;;;;;;;;;32.25;29.00;;;;;16.06;72.01;101946.59;4933439;28;45551;-78
2021/06/23 11:19:10;;;;;;;;;29.50;28.00;;;;;16.07;72.08;101949.19;4936436;28;45468;-78
2021/06/23 11:21:36;;;;;;;;;31.75;28.75;;;;;16.08;72.10;101945.63;4938149;28;45420;-78
2021/06/23 11:24:05;;;;;;;;;33.00;30.75;;;;;16.11;72.06;101952.59;4931131;28;45693;-77
2021/06/23 11:26:30;;;;;;;;;34.75;31.25;;;;;16.18;71.89;101962.03;4938254;28;45406;-78
2021/06/23 11:29:11;;;;;;;;;36.75;32.75;;;;;16.20;72.65;101959.31;4937440;28;45476;-78
2021/06/23 11:31:51;;;;;;;;;35.75;31.50;;;;;16.18;71.91;101954.09;4938677;28;45619;-78
2021/06/23 11:34:40;;;;;;;;;31.75;28.00;;;;;16.22;71.91;101957.50;4936413;28;45341;-78